Portada
METAR-TAF:

METAR-TAF

Aeroports :

Saskatoon, Saskatchewan, Canadà

latitud: 52-10N, longitud: 106-41W, altitud: 501 m

Observació

L'informe es va fer fa 35 minuts, a les 16:00 UTC
Vent 9 kt del Sud-Est
Temperatura 4°C
Humitat 48%
Pressió 1021 hPa
Visibilitat: 24.1 km
Cel clar

METAR: CYXE 231600Z 14009KT 15SM SKC 04/M06 A3016 RMK SLP241

Hora: 10:35 (16:35 UTC)

Pronòstic

L'informe es va fer fa 4 hores i 56 minuts, a les 11:39 UTC
Pronòstic vàlid del 23 a les 12 UTC al 24 a les 12 UTC
Vent 8 kt del Est/Sud-Est
Visibilitat: 10 km
Cel clar
Evolucionant progressivament
l' 23 a les 14 UTC al 23 a les 16 UTC
Vent 15 kt del Sud-Est amb ràfegues de 25 kt
Evolucionant progressivament
l' 24 a les 06 UTC al 24 a les 08 UTC
Vent 8 kt del Sud-Est

TAF: CYXE 231139Z 2312/2412 12008KT P6SM SKC BECMG 2314/2316 14015G25KT BECMG 2406/2408 14008KT RMK NXT FCST BY 231800Z

Observacions i pronòstics meteorològics de més de 4000 aeroports (METAR i TAF).

Les estacions disponibles són els punts grocs i vermells al mapa.

Posi el ratolí al punt desitjat per veure el nom de l'estació.

Feu clic per veure les observacions i els pronòstics meteorològics.

Per canviar el mapa: feu clic els botons verds amb una creu de color negre per apropar; al botó verd amb un guió per allunyar la imatge; o en les fletxes verdes per a mapes adjacents.


METAR-TAF: